sensor_id;sensor_type;location;lat;lon;timestamp;temperature;humidity
74968;SHT30;63523;51.880;12.630;2023-03-31T00:01:29;8.60;90.77
74968;SHT30;63523;51.880;12.630;2023-03-31T00:03:58;8.67;90.89
74968;SHT30;63523;51.880;12.630;2023-03-31T00:06:35;8.76;91.10
74968;SHT30;63523;51.880;12.630;2023-03-31T00:09:09;8.80;91.14
74968;SHT30;63523;51.880;12.630;2023-03-31T00:11:39;8.90;90.94
74968;SHT30;63523;51.880;12.630;2023-03-31T00:14:05;8.92;91.04
74968;SHT30;63523;51.880;12.630;2023-03-31T00:16:33;9.00;90.91
74968;SHT30;63523;51.880;12.630;2023-03-31T00:18:58;9.05;90.87
74968;SHT30;63523;51.880;12.630;2023-03-31T00:21:27;9.12;90.76
74968;SHT30;63523;51.880;12.630;2023-03-31T00:24:08;9.11;90.70
74968;SHT30;63523;51.880;12.630;2023-03-31T00:26:35;9.18;90.73
74968;SHT30;63523;51.880;12.630;2023-03-31T00:29:02;9.21;90.56
74968;SHT30;63523;51.880;12.630;2023-03-31T00:31:28;9.26;90.48
74968;SHT30;63523;51.880;12.630;2023-03-31T00:33:54;9.31;90.31
74968;SHT30;63523;51.880;12.630;2023-03-31T00:36:20;9.35;90.35
74968;SHT30;63523;51.880;12.630;2023-03-31T00:38:52;9.35;90.29
74968;SHT30;63523;51.880;12.630;2023-03-31T00:41:17;9.42;90.30
74968;SHT30;63523;51.880;12.630;2023-03-31T00:46:37;9.47;90.25
74968;SHT30;63523;51.880;12.630;2023-03-31T00:49:10;9.52;90.25
74968;SHT30;63523;51.880;12.630;2023-03-31T00:51:39;9.56;90.22
74968;SHT30;63523;51.880;12.630;2023-03-31T00:54:06;9.59;90.15
74968;SHT30;63523;51.880;12.630;2023-03-31T00:56:35;9.59;90.09
74968;SHT30;63523;51.880;12.630;2023-03-31T00:59:03;9.61;90.03
74968;SHT30;63523;51.880;12.630;2023-03-31T01:01:32;9.64;89.80
74968;SHT30;63523;51.880;12.630;2023-03-31T01:04:01;9.66;89.86
74968;SHT30;63523;51.880;12.630;2023-03-31T01:06:27;9.70;89.70
74968;SHT30;63523;51.880;12.630;2023-03-31T01:08:55;9.71;89.80
74968;SHT30;63523;51.880;12.630;2023-03-31T01:11:23;9.70;89.66
74968;SHT30;63523;51.880;12.630;2023-03-31T01:13:51;9.78;89.60
74968;SHT30;63523;51.880;12.630;2023-03-31T01:16:20;9.78;89.24
74968;SHT30;63523;51.880;12.630;2023-03-31T01:18:46;9.74;89.43
74968;SHT30;63523;51.880;12.630;2023-03-31T01:27:04;9.73;89.37
74968;SHT30;63523;51.880;12.630;2023-03-31T01:35:48;9.77;89.26
74968;SHT30;63523;51.880;12.630;2023-03-31T01:41:39;9.73;89.06
74968;SHT30;63523;51.880;12.630;2023-03-31T01:47:14;9.59;88.93
74968;SHT30;63523;51.880;12.630;2023-03-31T01:52:30;9.49;89.20
74968;SHT30;63523;51.880;12.630;2023-03-31T01:55:08;9.44;89.20
74968;SHT30;63523;51.880;12.630;2023-03-31T01:57:41;9.39;89.40
74968;SHT30;63523;51.880;12.630;2023-03-31T02:00:11;9.38;89.61
74968;SHT30;63523;51.880;12.630;2023-03-31T02:05:25;9.33;89.73
74968;SHT30;63523;51.880;12.630;2023-03-31T02:07:55;9.29;89.73
74968;SHT30;63523;51.880;12.630;2023-03-31T02:10:24;9.28;89.81
74968;SHT30;63523;51.880;12.630;2023-03-31T02:12:52;9.29;89.88
74968;SHT30;63523;51.880;12.630;2023-03-31T02:15:28;9.28;89.92
74968;SHT30;63523;51.880;12.630;2023-03-31T02:17:57;9.32;90.04
74968;SHT30;63523;51.880;12.630;2023-03-31T02:20:26;9.31;89.98
74968;SHT30;63523;51.880;12.630;2023-03-31T02:22:54;9.35;90.02
74968;SHT30;63523;51.880;12.630;2023-03-31T02:25:32;9.38;90.02
74968;SHT30;63523;51.880;12.630;2023-03-31T02:28:04;9.36;90.04
74968;SHT30;63523;51.880;12.630;2023-03-31T02:30:43;9.43;89.96
74968;SHT30;63523;51.880;12.630;2023-03-31T02:33:10;9.43;89.92
74968;SHT30;63523;51.880;12.630;2023-03-31T02:35:35;9.43;89.92
74968;SHT30;63523;51.880;12.630;2023-03-31T02:38:01;9.47;89.87
74968;SHT30;63523;51.880;12.630;2023-03-31T02:40:27;9.50;89.84
74968;SHT30;63523;51.880;12.630;2023-03-31T02:42:55;9.50;89.65
74968;SHT30;63523;51.880;12.630;2023-03-31T02:45:56;9.53;89.57
74968;SHT30;63523;51.880;12.630;2023-03-31T02:48:26;9.52;89.44
74968;SHT30;63523;51.880;12.630;2023-03-31T02:53:42;9.38;88.76
74968;SHT30;63523;51.880;12.630;2023-03-31T02:56:39;9.28;88.90
74968;SHT30;63523;51.880;12.630;2023-03-31T03:01:57;9.08;89.10
74968;SHT30;63523;51.880;12.630;2023-03-31T03:10:09;8.85;89.75
74968;SHT30;63523;51.880;12.630;2023-03-31T03:15:50;8.77;89.88
74968;SHT30;63523;51.880;12.630;2023-03-31T03:18:18;8.71;89.95
74968;SHT30;63523;51.880;12.630;2023-03-31T03:20:44;8.67;90.03
74968;SHT30;63523;51.880;12.630;2023-03-31T03:23:14;8.64;90.15
74968;SHT30;63523;51.880;12.630;2023-03-31T03:25:41;8.64;90.27
74968;SHT30;63523;51.880;12.630;2023-03-31T03:28:06;8.60;90.42
74968;SHT30;63523;51.880;12.630;2023-03-31T03:30:32;8.59;90.36
74968;SHT30;63523;51.880;12.630;2023-03-31T03:32:57;8.59;90.40
74968;SHT30;63523;51.880;12.630;2023-03-31T03:35:23;8.53;90.54
74968;SHT30;63523;51.880;12.630;2023-03-31T03:37:51;8.54;90.66
74968;SHT30;63523;51.880;12.630;2023-03-31T03:40:17;8.56;90.53
74968;SHT30;63523;51.880;12.630;2023-03-31T03:42:45;8.56;90.47
74968;SHT30;63523;51.880;12.630;2023-03-31T03:45:11;8.59;89.99
74968;SHT30;63523;51.880;12.630;2023-03-31T03:47:36;8.56;89.96
74968;SHT30;63523;51.880;12.630;2023-03-31T03:50:03;8.57;90.34
74968;SHT30;63523;51.880;12.630;2023-03-31T03:52:28;8.62;90.45
74968;SHT30;63523;51.880;12.630;2023-03-31T03:54:54;8.66;90.37
74968;SHT30;63523;51.880;12.630;2023-03-31T03:57:20;8.67;90.24
74968;SHT30;63523;51.880;12.630;2023-03-31T03:59:45;8.76;89.98
74968;SHT30;63523;51.880;12.630;2023-03-31T04:02:11;8.79;89.82
74968;SHT30;63523;51.880;12.630;2023-03-31T04:04:36;8.81;89.78
74968;SHT30;63523;51.880;12.630;2023-03-31T04:07:02;8.84;89.83
74968;SHT30;63523;51.880;12.630;2023-03-31T04:09:27;8.84;89.68
74968;SHT30;63523;51.880;12.630;2023-03-31T04:11:53;8.84;89.79
74968;SHT30;63523;51.880;12.630;2023-03-31T04:14:18;8.81;89.86
74968;SHT30;63523;51.880;12.630;2023-03-31T04:16:44;8.84;90.03
74968;SHT30;63523;51.880;12.630;2023-03-31T04:19:14;8.87;90.11
74968;SHT30;63523;51.880;12.630;2023-03-31T04:21:43;8.85;89.90
74968;SHT30;63523;51.880;12.630;2023-03-31T04:24:14;8.83;89.84
74968;SHT30;63523;51.880;12.630;2023-03-31T04:26:46;8.80;89.97
74968;SHT30;63523;51.880;12.630;2023-03-31T04:29:15;8.80;89.97
74968;SHT30;63523;51.880;12.630;2023-03-31T04:31:41;8.79;89.87
74968;SHT30;63523;51.880;12.630;2023-03-31T04:34:12;8.76;89.84
74968;SHT30;63523;51.880;12.630;2023-03-31T04:36:45;8.79;90.11
74968;SHT30;63523;51.880;12.630;2023-03-31T04:39:16;8.77;90.02
74968;SHT30;63523;51.880;12.630;2023-03-31T04:41:43;8.79;89.80
74968;SHT30;63523;51.880;12.630;2023-03-31T04:44:08;8.83;89.88
74968;SHT30;63523;51.880;12.630;2023-03-31T04:46:34;8.84;89.61
74968;SHT30;63523;51.880;12.630;2023-03-31T04:49:00;8.81;89.57
74968;SHT30;63523;51.880;12.630;2023-03-31T04:51:27;8.84;89.46
74968;SHT30;63523;51.880;12.630;2023-03-31T04:53:53;8.83;89.37
74968;SHT30;63523;51.880;12.630;2023-03-31T04:56:18;8.83;89.31
74968;SHT30;63523;51.880;12.630;2023-03-31T04:58:44;8.81;89.38
74968;SHT30;63523;51.880;12.630;2023-03-31T05:01:09;8.84;89.42
74968;SHT30;63523;51.880;12.630;2023-03-31T05:03:38;8.85;89.45
74968;SHT30;63523;51.880;12.630;2023-03-31T05:06:04;8.85;89.46
74968;SHT30;63523;51.880;12.630;2023-03-31T05:08:29;8.88;89.69
74968;SHT30;63523;51.880;12.630;2023-03-31T05:10:55;9.03;90.21
74968;SHT30;63523;51.880;12.630;2023-03-31T05:13:22;9.29;90.28
74968;SHT30;63523;51.880;12.630;2023-03-31T05:15:47;9.63;89.61
74968;SHT30;63523;51.880;12.630;2023-03-31T05:18:15;9.94;88.43
74968;SHT30;63523;51.880;12.630;2023-03-31T05:20:41;10.21;86.86
74968;SHT30;63523;51.880;12.630;2023-03-31T05:23:06;10.22;85.87
74968;SHT30;63523;51.880;12.630;2023-03-31T05:25:32;10.19;86.26
74968;SHT30;63523;51.880;12.630;2023-03-31T05:27:59;10.14;85.96
74968;SHT30;63523;51.880;12.630;2023-03-31T05:30:26;10.14;86.44
74968;SHT30;63523;51.880;12.630;2023-03-31T05:32:54;10.16;85.93
74968;SHT30;63523;51.880;12.630;2023-03-31T05:35:20;10.21;85.11
74968;SHT30;63523;51.880;12.630;2023-03-31T05:37:46;10.14;85.67
74968;SHT30;63523;51.880;12.630;2023-03-31T05:40:11;10.04;86.09
74968;SHT30;63523;51.880;12.630;2023-03-31T05:42:37;9.98;86.59
74968;SHT30;63523;51.880;12.630;2023-03-31T05:45:03;9.91;86.18
74968;SHT30;63523;51.880;12.630;2023-03-31T05:47:29;9.84;86.39
74968;SHT30;63523;51.880;12.630;2023-03-31T05:49:55;9.81;86.60
74968;SHT30;63523;51.880;12.630;2023-03-31T05:52:20;9.78;86.61
74968;SHT30;63523;51.880;12.630;2023-03-31T05:54:46;9.80;86.82
74968;SHT30;63523;51.880;12.630;2023-03-31T05:57:11;9.88;87.24
74968;SHT30;63523;51.880;12.630;2023-03-31T05:59:37;10.09;87.10
74968;SHT30;63523;51.880;12.630;2023-03-31T06:02:03;10.22;86.34
74968;SHT30;63523;51.880;12.630;2023-03-31T06:04:29;10.33;86.28
74968;SHT30;63523;51.880;12.630;2023-03-31T06:06:56;10.48;86.04
74968;SHT30;63523;51.880;12.630;2023-03-31T06:09:23;10.73;86.08
74968;SHT30;63523;51.880;12.630;2023-03-31T06:11:48;10.95;86.00
74968;SHT30;63523;51.880;12.630;2023-03-31T06:14:14;11.12;84.63
74968;SHT30;63523;51.880;12.630;2023-03-31T06:16:39;11.31;83.07
74968;SHT30;63523;51.880;12.630;2023-03-31T06:19:05;11.43;83.06
74968;SHT30;63523;51.880;12.630;2023-03-31T06:21:31;11.58;81.86
74968;SHT30;63523;51.880;12.630;2023-03-31T06:23:57;11.62;81.87
74968;SHT30;63523;51.880;12.630;2023-03-31T06:26:24;11.73;82.12
74968;SHT30;63523;51.880;12.630;2023-03-31T06:28:50;11.90;81.30
74968;SHT30;63523;51.880;12.630;2023-03-31T06:31:18;12.08;81.78
74968;SHT30;63523;51.880;12.630;2023-03-31T06:33:45;12.26;81.69
74968;SHT30;63523;51.880;12.630;2023-03-31T06:36:15;12.40;80.21
74968;SHT30;63523;51.880;12.630;2023-03-31T06:38:42;12.32;79.40
74968;SHT30;63523;51.880;12.630;2023-03-31T06:41:10;12.45;77.52
74968;SHT30;63523;51.880;12.630;2023-03-31T06:43:36;12.55;78.34
74968;SHT30;63523;51.880;12.630;2023-03-31T06:46:01;12.73;77.89
74968;SHT30;63523;51.880;12.630;2023-03-31T06:48:27;12.80;78.21
74968;SHT30;63523;51.880;12.630;2023-03-31T06:50:53;12.87;77.95
74968;SHT30;63523;51.880;12.630;2023-03-31T06:53:20;12.93;76.91
74968;SHT30;63523;51.880;12.630;2023-03-31T06:55:46;12.90;75.94
74968;SHT30;63523;51.880;12.630;2023-03-31T06:58:12;12.94;77.04
74968;SHT30;63523;51.880;12.630;2023-03-31T07:00:37;12.88;77.18
74968;SHT30;63523;51.880;12.630;2023-03-31T07:03:03;12.95;76.03
74968;SHT30;63523;51.880;12.630;2023-03-31T07:05:29;12.84;76.44
74968;SHT30;63523;51.880;12.630;2023-03-31T07:07:57;12.73;77.01
74968;SHT30;63523;51.880;12.630;2023-03-31T07:10:24;12.72;78.54
74968;SHT30;63523;51.880;12.630;2023-03-31T07:12:50;12.66;78.29
74968;SHT30;63523;51.880;12.630;2023-03-31T07:15:16;12.66;78.20
74968;SHT30;63523;51.880;12.630;2023-03-31T07:17:42;12.69;77.44
74968;SHT30;63523;51.880;12.630;2023-03-31T07:20:09;12.67;79.08
74968;SHT30;63523;51.880;12.630;2023-03-31T07:22:42;12.80;78.40
74968;SHT30;63523;51.880;12.630;2023-03-31T07:25:09;12.93;77.97
74968;SHT30;63523;51.880;12.630;2023-03-31T07:27:36;13.19;77.59
74968;SHT30;63523;51.880;12.630;2023-03-31T07:30:04;13.38;75.24
74968;SHT30;63523;51.880;12.630;2023-03-31T07:32:30;13.50;73.62
74968;SHT30;63523;51.880;12.630;2023-03-31T07:34:57;13.40;75.21
74968;SHT30;63523;51.880;12.630;2023-03-31T07:37:23;13.31;75.47
74968;SHT30;63523;51.880;12.630;2023-03-31T07:39:48;13.14;75.91
74968;SHT30;63523;51.880;12.630;2023-03-31T07:42:14;13.01;76.14
74968;SHT30;63523;51.880;12.630;2023-03-31T07:44:39;13.07;75.59
74968;SHT30;63523;51.880;12.630;2023-03-31T07:47:05;13.04;75.97
74968;SHT30;63523;51.880;12.630;2023-03-31T07:49:32;13.14;76.93
74968;SHT30;63523;51.880;12.630;2023-03-31T07:51:57;13.25;76.24
74968;SHT30;63523;51.880;12.630;2023-03-31T07:54:23;13.50;76.48
74968;SHT30;63523;51.880;12.630;2023-03-31T07:56:49;13.90;74.56
74968;SHT30;63523;51.880;12.630;2023-03-31T07:59:15;14.18;72.96
74968;SHT30;63523;51.880;12.630;2023-03-31T08:01:40;14.14;74.45
74968;SHT30;63523;51.880;12.630;2023-03-31T08:04:06;14.31;73.87
74968;SHT30;63523;51.880;12.630;2023-03-31T08:06:31;14.40;71.74
74968;SHT30;63523;51.880;12.630;2023-03-31T08:08:57;14.53;71.04
74968;SHT30;63523;51.880;12.630;2023-03-31T08:11:24;14.53;71.54
74968;SHT30;63523;51.880;12.630;2023-03-31T08:13:50;14.59;71.47
74968;SHT30;63523;51.880;12.630;2023-03-31T08:16:15;14.70;72.09
74968;SHT30;63523;51.880;12.630;2023-03-31T08:18:41;14.63;70.86
74968;SHT30;63523;51.880;12.630;2023-03-31T08:21:07;14.43;70.36
74968;SHT30;63523;51.880;12.630;2023-03-31T08:23:36;14.15;71.73
74968;SHT30;63523;51.880;12.630;2023-03-31T08:26:09;13.98;74.07
74968;SHT30;63523;51.880;12.630;2023-03-31T08:28:34;13.91;74.90
74968;SHT30;63523;51.880;12.630;2023-03-31T08:31:04;13.66;75.18
74968;SHT30;63523;51.880;12.630;2023-03-31T08:33:30;13.57;76.23
74968;SHT30;63523;51.880;12.630;2023-03-31T08:35:56;13.43;77.94
74968;SHT30;63523;51.880;12.630;2023-03-31T08:38:25;13.42;78.02
74968;SHT30;63523;51.880;12.630;2023-03-31T08:40:58;13.22;78.32
74968;SHT30;63523;51.880;12.630;2023-03-31T08:43:28;13.29;78.83
74968;SHT30;63523;51.880;12.630;2023-03-31T08:45:57;13.26;77.96
74968;SHT30;63523;51.880;12.630;2023-03-31T08:48:26;13.28;77.91
74968;SHT30;63523;51.880;12.630;2023-03-31T08:51:05;13.15;78.86
74968;SHT30;63523;51.880;12.630;2023-03-31T08:53:58;13.19;79.25
74968;SHT30;63523;51.880;12.630;2023-03-31T08:56:27;13.35;79.60
74968;SHT30;63523;51.880;12.630;2023-03-31T08:58:54;13.53;78.40
74968;SHT30;63523;51.880;12.630;2023-03-31T09:04:23;13.77;78.97
74968;SHT30;63523;51.880;12.630;2023-03-31T09:12:03;14.24;74.86
74968;SHT30;63523;51.880;12.630;2023-03-31T09:14:43;14.33;74.73
74968;SHT30;63523;51.880;12.630;2023-03-31T09:17:26;14.24;74.02
74968;SHT30;63523;51.880;12.630;2023-03-31T09:20:18;14.49;75.26
74968;SHT30;63523;51.880;12.630;2023-03-31T09:22:48;14.65;73.82
74968;SHT30;63523;51.880;12.630;2023-03-31T09:27:42;14.55;75.70
74968;SHT30;63523;51.880;12.630;2023-03-31T09:30:27;14.28;74.93
74968;SHT30;63523;51.880;12.630;2023-03-31T09:33:10;13.93;75.85
74968;SHT30;63523;51.880;12.630;2023-03-31T09:35:36;13.62;77.28
74968;SHT30;63523;51.880;12.630;2023-03-31T09:38:02;13.55;77.97
74968;SHT30;63523;51.880;12.630;2023-03-31T09:40:28;13.50;77.50
74968;SHT30;63523;51.880;12.630;2023-03-31T09:45:36;13.48;78.57
74968;SHT30;63523;51.880;12.630;2023-03-31T09:48:10;13.67;78.31
74968;SHT30;63523;51.880;12.630;2023-03-31T09:51:05;13.81;77.11
74968;SHT30;63523;51.880;12.630;2023-03-31T09:54:06;13.91;76.46
74968;SHT30;63523;51.880;12.630;2023-03-31T09:59:32;13.90;74.54
74968;SHT30;63523;51.880;12.630;2023-03-31T10:02:05;14.00;75.35
74968;SHT30;63523;51.880;12.630;2023-03-31T10:04:44;14.10;74.71
74968;SHT30;63523;51.880;12.630;2023-03-31T10:07:11;14.22;74.04
74968;SHT30;63523;51.880;12.630;2023-03-31T10:09:37;14.29;73.51
74968;SHT30;63523;51.880;12.630;2023-03-31T10:12:13;14.07;74.53
74968;SHT30;63523;51.880;12.630;2023-03-31T10:14:45;13.93;74.28
74968;SHT30;63523;51.880;12.630;2023-03-31T10:17:15;13.67;74.94
74968;SHT30;63523;51.880;12.630;2023-03-31T10:19:55;13.53;75.49
74968;SHT30;63523;51.880;12.630;2023-03-31T10:24:48;13.35;75.73
74968;SHT30;63523;51.880;12.630;2023-03-31T10:27:27;13.43;76.89
74968;SHT30;63523;51.880;12.630;2023-03-31T10:29:57;13.42;76.60
74968;SHT30;63523;51.880;12.630;2023-03-31T10:34:54;13.36;76.32
74968;SHT30;63523;51.880;12.630;2023-03-31T10:37:26;13.32;76.42
74968;SHT30;63523;51.880;12.630;2023-03-31T10:42:48;13.42;76.40
74968;SHT30;63523;51.880;12.630;2023-03-31T10:45:27;13.32;76.97
74968;SHT30;63523;51.880;12.630;2023-03-31T10:47:56;13.35;77.05
74968;SHT30;63523;51.880;12.630;2023-03-31T10:50:33;13.38;77.11
74968;SHT30;63523;51.880;12.630;2023-03-31T10:53:04;13.39;76.69
74968;SHT30;63523;51.880;12.630;2023-03-31T10:55:38;13.40;75.85
74968;SHT30;63523;51.880;12.630;2023-03-31T11:01:11;13.12;76.19
74968;SHT30;63523;51.880;12.630;2023-03-31T11:03:58;13.01;77.17
74968;SHT30;63523;51.880;12.630;2023-03-31T11:12:27;12.53;80.04
74968;SHT30;63523;51.880;12.630;2023-03-31T11:23:19;11.93;83.21
74968;SHT30;63523;51.880;12.630;2023-03-31T11:25:57;11.98;84.23
74968;SHT30;63523;51.880;12.630;2023-03-31T11:34:17;12.48;83.77
74968;SHT30;63523;51.880;12.630;2023-03-31T11:42:00;12.80;82.77
74968;SHT30;63523;51.880;12.630;2023-03-31T11:44:41;12.73;82.74
74968;SHT30;63523;51.880;12.630;2023-03-31T11:47:15;12.50;83.60
74968;SHT30;63523;51.880;12.630;2023-03-31T11:49:53;12.28;84.53
74968;SHT30;63523;51.880;12.630;2023-03-31T11:52:26;12.11;86.09
74968;SHT30;63523;51.880;12.630;2023-03-31T11:55:26;12.18;86.14
74968;SHT30;63523;51.880;12.630;2023-03-31T12:00:23;12.14;86.02
74968;SHT30;63523;51.880;12.630;2023-03-31T12:03:13;12.04;86.33
74968;SHT30;63523;51.880;12.630;2023-03-31T12:05:47;11.83;86.51
74968;SHT30;63523;51.880;12.630;2023-03-31T12:08:32;11.65;87.29
74968;SHT30;63523;51.880;12.630;2023-03-31T12:11:04;11.56;88.36
74968;SHT30;63523;51.880;12.630;2023-03-31T12:13:40;11.58;87.85
74968;SHT30;63523;51.880;12.630;2023-03-31T12:16:19;11.44;88.26
74968;SHT30;63523;51.880;12.630;2023-03-31T12:21:31;11.40;88.80
74968;SHT30;63523;51.880;12.630;2023-03-31T12:23:58;11.43;87.10
74968;SHT30;63523;51.880;12.630;2023-03-31T12:29:15;11.24;87.07
74968;SHT30;63523;51.880;12.630;2023-03-31T12:31:45;11.16;88.15
74968;SHT30;63523;51.880;12.630;2023-03-31T12:34:13;11.15;88.72
74968;SHT30;63523;51.880;12.630;2023-03-31T12:44:37;11.28;89.58
74968;SHT30;63523;51.880;12.630;2023-03-31T13:01:20;11.32;89.18
74968;SHT30;63523;51.880;12.630;2023-03-31T13:04:06;11.29;89.03
74968;SHT30;63523;51.880;12.630;2023-03-31T13:11:44;11.04;89.62
74968;SHT30;63523;51.880;12.630;2023-03-31T13:14:17;11.11;89.90
74968;SHT30;63523;51.880;12.630;2023-03-31T13:16:44;11.22;89.69
74968;SHT30;63523;51.880;12.630;2023-03-31T13:19:29;11.26;89.73
74968;SHT30;63523;51.880;12.630;2023-03-31T13:21:58;11.29;89.68
74968;SHT30;63523;51.880;12.630;2023-03-31T13:24:26;11.35;90.04
74968;SHT30;63523;51.880;12.630;2023-03-31T13:26:52;11.46;89.71
74968;SHT30;63523;51.880;12.630;2023-03-31T13:29:23;11.40;89.02
74968;SHT30;63523;51.880;12.630;2023-03-31T13:34:40;11.28;88.77
74968;SHT30;63523;51.880;12.630;2023-03-31T13:37:28;11.24;89.19
74968;SHT30;63523;51.880;12.630;2023-03-31T13:40:04;11.21;89.52
74968;SHT30;63523;51.880;12.630;2023-03-31T13:48:39;11.36;89.39
74968;SHT30;63523;51.880;12.630;2023-03-31T14:00:20;11.28;88.52
74968;SHT30;63523;51.880;12.630;2023-03-31T14:02:44;11.36;88.82
74968;SHT30;63523;51.880;12.630;2023-03-31T14:07:53;11.39;88.05
74968;SHT30;63523;51.880;12.630;2023-03-31T14:13:12;11.52;88.35
74968;SHT30;63523;51.880;12.630;2023-03-31T14:15:41;11.56;88.28
74968;SHT30;63523;51.880;12.630;2023-03-31T14:18:11;11.63;87.91
74968;SHT30;63523;51.880;12.630;2023-03-31T14:21:06;11.67;88.08
74968;SHT30;63523;51.880;12.630;2023-03-31T14:29:43;11.83;87.62
74968;SHT30;63523;51.880;12.630;2023-03-31T14:37:38;12.01;88.33
74968;SHT30;63523;51.880;12.630;2023-03-31T14:40:09;12.10;87.89
74968;SHT30;63523;51.880;12.630;2023-03-31T14:42:38;12.14;87.33
74968;SHT30;63523;51.880;12.630;2023-03-31T14:45:18;12.15;87.38
74968;SHT30;63523;51.880;12.630;2023-03-31T14:48:01;12.17;87.02
74968;SHT30;63523;51.880;12.630;2023-03-31T14:50:32;12.12;87.10
74968;SHT30;63523;51.880;12.630;2023-03-31T14:52:57;12.20;87.89
74968;SHT30;63523;51.880;12.630;2023-03-31T14:55:27;12.24;87.32
74968;SHT30;63523;51.880;12.630;2023-03-31T14:57:54;12.29;87.33
74968;SHT30;63523;51.880;12.630;2023-03-31T15:00:26;12.40;86.88
74968;SHT30;63523;51.880;12.630;2023-03-31T15:02:52;12.49;86.76
74968;SHT30;63523;51.880;12.630;2023-03-31T15:05:25;12.59;86.09
74968;SHT30;63523;51.880;12.630;2023-03-31T15:07:56;12.63;85.95
74968;SHT30;63523;51.880;12.630;2023-03-31T15:10:22;12.64;84.93
74968;SHT30;63523;51.880;12.630;2023-03-31T15:12:49;12.67;85.52
74968;SHT30;63523;51.880;12.630;2023-03-31T15:15:22;12.67;84.39
74968;SHT30;63523;51.880;12.630;2023-03-31T15:17:47;12.73;84.16
74968;SHT30;63523;51.880;12.630;2023-03-31T15:20:36;12.69;84.26
74968;SHT30;63523;51.880;12.630;2023-03-31T15:23:04;12.73;84.71
74968;SHT30;63523;51.880;12.630;2023-03-31T15:25:43;12.76;85.35
74968;SHT30;63523;51.880;12.630;2023-03-31T15:28:14;12.75;84.70
74968;SHT30;63523;51.880;12.630;2023-03-31T15:30:41;12.76;84.79
74968;SHT30;63523;51.880;12.630;2023-03-31T15:33:16;12.70;84.68
74968;SHT30;63523;51.880;12.630;2023-03-31T15:35:42;12.73;85.78
74968;SHT30;63523;51.880;12.630;2023-03-31T15:38:10;12.76;85.42
74968;SHT30;63523;51.880;12.630;2023-03-31T15:40:38;12.70;84.97
74968;SHT30;63523;51.880;12.630;2023-03-31T15:43:15;12.64;84.85
74968;SHT30;63523;51.880;12.630;2023-03-31T15:45:54;12.55;84.96
74968;SHT30;63523;51.880;12.630;2023-03-31T15:48:32;12.56;85.44
74968;SHT30;63523;51.880;12.630;2023-03-31T15:51:06;12.48;85.78
74968;SHT30;63523;51.880;12.630;2023-03-31T15:53:46;12.40;86.12
74968;SHT30;63523;51.880;12.630;2023-03-31T15:56:40;12.33;85.96
74968;SHT30;63523;51.880;12.630;2023-03-31T16:01:48;12.22;86.80
74968;SHT30;63523;51.880;12.630;2023-03-31T16:04:14;12.15;86.99
74968;SHT30;63523;51.880;12.630;2023-03-31T16:06:56;12.12;87.04
74968;SHT30;63523;51.880;12.630;2023-03-31T16:09:29;12.06;86.82
74968;SHT30;63523;51.880;12.630;2023-03-31T16:12:04;12.04;87.04
74968;SHT30;63523;51.880;12.630;2023-03-31T16:14:37;11.97;87.44
74968;SHT30;63523;51.880;12.630;2023-03-31T16:17:33;11.93;87.75
74968;SHT30;63523;51.880;12.630;2023-03-31T16:20:04;11.80;88.00
74968;SHT30;63523;51.880;12.630;2023-03-31T16:22:43;11.60;89.07
74968;SHT30;63523;51.880;12.630;2023-03-31T16:25:16;11.36;90.26
74968;SHT30;63523;51.880;12.630;2023-03-31T16:27:44;11.22;89.38
74968;SHT30;63523;51.880;12.630;2023-03-31T16:30:31;10.73;89.99
74968;SHT30;63523;51.880;12.630;2023-03-31T16:33:09;10.53;91.15
74968;SHT30;63523;51.880;12.630;2023-03-31T16:35:42;10.35;92.38
74968;SHT30;63523;51.880;12.630;2023-03-31T16:38:10;10.32;93.01
74968;SHT30;63523;51.880;12.630;2023-03-31T16:40:41;10.26;93.52
74968;SHT30;63523;51.880;12.630;2023-03-31T16:43:22;10.35;93.77
74968;SHT30;63523;51.880;12.630;2023-03-31T16:45:52;10.07;91.94
74968;SHT30;63523;51.880;12.630;2023-03-31T16:48:20;9.73;92.40
74968;SHT30;63523;51.880;12.630;2023-03-31T16:50:48;9.60;93.19
74968;SHT30;63523;51.880;12.630;2023-03-31T16:53:15;9.63;93.54
74968;SHT30;63523;51.880;12.630;2023-03-31T16:55:42;9.67;93.51
74968;SHT30;63523;51.880;12.630;2023-03-31T16:58:08;9.73;93.42
74968;SHT30;63523;51.880;12.630;2023-03-31T17:00:34;9.80;93.32
74968;SHT30;63523;51.880;12.630;2023-03-31T17:03:04;9.86;93.13
74968;SHT30;63523;51.880;12.630;2023-03-31T17:05:30;9.86;92.93
74968;SHT30;63523;51.880;12.630;2023-03-31T17:07:57;9.91;93.08
74968;SHT30;63523;51.880;12.630;2023-03-31T17:10:23;9.91;93.01
74968;SHT30;63523;51.880;12.630;2023-03-31T17:12:49;9.88;93.22
74968;SHT30;63523;51.880;12.630;2023-03-31T17:15:15;9.93;93.29
74968;SHT30;63523;51.880;12.630;2023-03-31T17:17:44;9.95;93.42
74968;SHT30;63523;51.880;12.630;2023-03-31T17:20:10;9.95;93.11
74968;SHT30;63523;51.880;12.630;2023-03-31T17:22:36;9.91;92.79
74968;SHT30;63523;51.880;12.630;2023-03-31T17:25:02;9.86;92.86
74968;SHT30;63523;51.880;12.630;2023-03-31T17:27:28;9.83;92.69
74968;SHT30;63523;51.880;12.630;2023-03-31T17:29:54;9.80;92.53
74968;SHT30;63523;51.880;12.630;2023-03-31T17:32:21;9.78;92.48
74968;SHT30;63523;51.880;12.630;2023-03-31T17:34:46;9.71;92.52
74968;SHT30;63523;51.880;12.630;2023-03-31T17:37:14;9.67;92.38
74968;SHT30;63523;51.880;12.630;2023-03-31T17:39:41;9.60;92.49
74968;SHT30;63523;51.880;12.630;2023-03-31T17:42:08;9.52;92.59
74968;SHT30;63523;51.880;12.630;2023-03-31T17:44:33;9.49;92.62
74968;SHT30;63523;51.880;12.630;2023-03-31T17:46:59;9.52;92.89
74968;SHT30;63523;51.880;12.630;2023-03-31T17:49:24;9.53;92.72
74968;SHT30;63523;51.880;12.630;2023-03-31T17:51:50;9.54;92.62
74968;SHT30;63523;51.880;12.630;2023-03-31T17:54:17;9.57;92.46
74968;SHT30;63523;51.880;12.630;2023-03-31T17:56:43;9.54;92.09
74968;SHT30;63523;51.880;12.630;2023-03-31T17:59:10;9.50;92.07
74968;SHT30;63523;51.880;12.630;2023-03-31T18:01:36;9.44;92.13
74968;SHT30;63523;51.880;12.630;2023-03-31T18:04:02;9.39;92.09
74968;SHT30;63523;51.880;12.630;2023-03-31T18:06:28;9.36;92.12
74968;SHT30;63523;51.880;12.630;2023-03-31T18:08:55;9.29;91.91
74968;SHT30;63523;51.880;12.630;2023-03-31T18:11:21;9.21;92.10
74968;SHT30;63523;51.880;12.630;2023-03-31T18:13:47;9.11;91.93
74968;SHT30;63523;51.880;12.630;2023-03-31T18:16:13;9.03;91.97
74968;SHT30;63523;51.880;12.630;2023-03-31T18:18:39;8.96;92.19
74968;SHT30;63523;51.880;12.630;2023-03-31T18:21:08;8.94;92.25
74968;SHT30;63523;51.880;12.630;2023-03-31T18:23:35;8.98;92.19
74968;SHT30;63523;51.880;12.630;2023-03-31T18:26:01;9.01;92.23